Huvudsida
METAR-TAF:

METAR-TAF

Flygplatser :

Rabat-Salé Airport

Rabat, Marocko

latitud: 34-03N, longitud: 006-46W, höjd: 84 m

Aktuellt väderrapport

Denna rapport gjordes för 23 minuter sedan, klockan 15:30 UTC
Vind 12 kt från nord, varierande mellan nord/nordväst och nordost
Temperatur 20°C
Fuktighet 64%
Tryck 1013 hPa
Sikt 10 km eller mer
Spridda moln på en höjd av 2600 ft

METAR: GMME 221530Z 36012KT 330V040 9999 SCT026 20/13 Q1013 NOSIG

Tid: 15:53 (15:53 UTC)

Väderprognos

Denna rapport gjordes för 4 timmar och 53 minuter sedan, klockan 11:00 UTC
Prognos gäller från 22 kl. 12 UTC till 23 kl. 18 UTC
Vind 8 kt från nordväst
Sikt: 8000 m
Spridda moln på en höjd av 2000 ft
Blir
från 22 kl. 22 UTC till 23 kl. 02 UTC
Spridda moln på en höjd av 1300 ft
Brutna moln på en höjd av 2000 ft
Sannolikhet 30% :
Temporärt
från 23 kl. 00 UTC till 23 kl. 06 UTC
regn

TAF: GMME 221100Z 2212/2318 32008KT 8000 SCT020 BECMG 2222/2302 SCT013 BKN020 PROB30 TEMPO 2300/2306 RA

Aktuella väderrapporter och prognoser från 4000 flygplatser (METAR- och TAF-rapporter).

De tillgängliga stationerna syns som gula och röda prickar på kartan.

För musen över prickarna för att se namnen på stationerna.

Klicka sedan för att få väderrapporter och prognoser.

För att ändra kartan: Klicka på de gröna knapparna med ett svart kors på för att zooma in; den gröna knappen med ett streck på för att zooma ut; eller på de gröna pilarna för angränsande kartor.


METAR-TAF: